Time;durP1;ratioP1;P1;durP2;ratioP2;P2;SDS_P1;SDS_P2;PMS_P1;PMS_P2;Temp;Humidity;BMP_temperature;BMP_pressure;BME280_temperature;BME280_humidity;BME280_pressure;Samples;Min_cycle;Max_cycle;Signal;HPM_P1;HPM_P2
2021/12/24 00:02:01;;;;;;;123.45;36.50;;;;;;;;;;5014953;28;20051;-87
2021/12/24 00:04:27;;;;;;;120.88;36.47;;;;;;;;;;5017861;28;20073;-88
2021/12/24 00:06:53;;;;;;;113.68;37.13;;;;;;;;;;5020001;28;20429;-87
2021/12/24 00:09:22;;;;;;;116.03;36.63;;;;;;;;;;4981309;28;20049;-88
2021/12/24 00:11:49;;;;;;;107.43;32.45;;;;;;;;;;5004537;28;20050;-87
2021/12/24 00:14:16;;;;;;;111.82;35.67;;;;;;;;;;5005078;28;20048;-87
2021/12/24 00:16:47;;;;;;;119.65;36.90;;;;;;;;;;5004790;28;20062;-86
2021/12/24 00:35:33;;;;;;;106.97;34.37;;;;;;;;;;5000762;28;20104;-87
2021/12/24 00:38:08;;;;;;;119.15;33.97;;;;;;;;;;4998139;28;20065;-87
2021/12/24 00:40:41;;;;;;;127.88;34.90;;;;;;;;;;4983290;28;20045;-88
2021/12/24 00:43:25;;;;;;;111.20;31.83;;;;;;;;;;5014533;28;20085;-89
2021/12/24 00:49:14;;;;;;;102.38;29.05;;;;;;;;;;5002793;28;20065;-88
2021/12/24 00:52:07;;;;;;;106.40;31.65;;;;;;;;;;5011097;28;20188;-88
2021/12/24 00:57:41;;;;;;;103.45;29.77;;;;;;;;;;5007204;28;20108;-88
2021/12/24 01:00:10;;;;;;;96.70;29.55;;;;;;;;;;5003532;28;20413;-88
2021/12/24 01:02:43;;;;;;;110.90;32.10;;;;;;;;;;5019762;28;20045;-88
2021/12/24 01:05:09;;;;;;;110.00;31.05;;;;;;;;;;5012245;28;20709;-88
2021/12/24 01:07:35;;;;;;;111.50;30.10;;;;;;;;;;5005165;28;20071;-88
2021/12/24 01:10:01;;;;;;;90.07;27.08;;;;;;;;;;5004127;28;20175;-87
2021/12/24 01:12:37;;;;;;;96.18;26.98;;;;;;;;;;4968429;28;20049;-87
2021/12/24 01:15:04;;;;;;;109.35;30.75;;;;;;;;;;4982985;28;20072;-88
2021/12/24 01:20:02;;;;;;;123.53;30.67;;;;;;;;;;5001385;28;20065;-87
2021/12/24 01:25:45;;;;;;;110.47;30.08;;;;;;;;;;5016223;28;20068;-88
2021/12/24 01:39:37;;;;;;;84.72;25.08;;;;;;;;;;5003087;28;20053;-87
2021/12/24 01:44:49;;;;;;;88.82;24.63;;;;;;;;;;5007643;28;20049;-88
2021/12/24 01:47:15;;;;;;;94.22;25.73;;;;;;;;;;4997967;28;20072;-87
2021/12/24 01:49:41;;;;;;;80.00;24.27;;;;;;;;;;5000629;28;20100;-88
2021/12/24 01:52:07;;;;;;;87.97;23.80;;;;;;;;;;4990514;28;20081;-88
2021/12/24 01:54:33;;;;;;;95.00;26.08;;;;;;;;;;4979314;28;20037;-89
2021/12/24 01:57:00;;;;;;;93.63;26.05;;;;;;;;;;4996758;28;20041;-87
2021/12/24 01:59:26;;;;;;;97.70;27.85;;;;;;;;;;5015356;28;20077;-86
2021/12/24 02:01:52;;;;;;;84.20;24.13;;;;;;;;;;5012027;28;20052;-85
2021/12/24 02:04:19;;;;;;;80.15;24.95;;;;;;;;;;5008788;28;20052;-84
2021/12/24 02:06:46;;;;;;;82.10;25.08;;;;;;;;;;5011298;28;20513;-86
2021/12/24 02:09:12;;;;;;;73.13;22.88;;;;;;;;;;5008778;28;20030;-85
2021/12/24 02:11:39;;;;;;;68.90;23.58;;;;;;;;;;5016143;28;20402;-85
2021/12/24 02:14:07;;;;;;;60.50;21.55;;;;;;;;;;5022286;28;20041;-84
2021/12/24 02:30:17;;;;;;;;;;;;;;;;;;5008809;28;20045;-85
2021/12/24 02:32:43;;;;;;;57.35;19.20;;;;;;;;;;5007801;28;20377;-86
2021/12/24 02:35:10;;;;;;;58.28;20.90;;;;;;;;;;5008323;28;20398;-85
2021/12/24 02:37:36;;;;;;;50.65;18.05;;;;;;;;;;5008749;28;20050;-86
2021/12/24 02:40:04;;;;;;;52.58;18.38;;;;;;;;;;5023167;28;20042;-86
2021/12/24 02:42:33;;;;;;;43.72;17.08;;;;;;;;;;5038746;28;20073;-85
2021/12/24 02:44:59;;;;;;;48.95;18.02;;;;;;;;;;5017457;28;20512;-86
2021/12/24 02:47:40;;;;;;;47.97;17.90;;;;;;;;;;5007270;28;20090;-85
2021/12/24 02:55:17;;;;;;;42.50;16.00;;;;;;;;;;5006542;28;20052;-86
2021/12/24 02:57:44;;;;;;;45.78;17.25;;;;;;;;;;5014146;28;20782;-85
2021/12/24 03:00:19;;;;;;;47.05;16.75;;;;;;;;;;5008870;28;20049;-84
2021/12/24 03:02:45;;;;;;;45.30;17.05;;;;;;;;;;5006893;28;20050;-86
2021/12/24 03:05:12;;;;;;;46.25;17.48;;;;;;;;;;5012974;28;20478;-87
2021/12/24 03:07:39;;;;;;;42.97;16.98;;;;;;;;;;5015710;28;20045;-85
2021/12/24 03:10:06;;;;;;;54.45;18.63;;;;;;;;;;4994412;28;20073;-86
2021/12/24 03:12:33;;;;;;;42.13;16.30;;;;;;;;;;5010488;28;20046;-85
2021/12/24 03:14:59;;;;;;;45.90;16.75;;;;;;;;;;5017630;28;20100;-85
2021/12/24 03:17:26;;;;;;;50.35;17.85;;;;;;;;;;5017980;28;20128;-89
2021/12/24 03:19:56;;;;;;;58.60;19.40;;;;;;;;;;5018958;28;20612;-86
2021/12/24 03:24:51;;;;;;;57.65;19.35;;;;;;;;;;5006747;28;20050;-86
2021/12/24 03:27:17;;;;;;;50.15;17.58;;;;;;;;;;4993729;28;20124;-90
2021/12/24 03:29:43;;;;;;;67.03;20.00;;;;;;;;;;5015682;28;20097;-86
2021/12/24 03:32:10;;;;;;;48.90;17.35;;;;;;;;;;5021035;28;20042;-84
2021/12/24 03:34:36;;;;;;;64.55;18.98;;;;;;;;;;4990347;28;20061;-85
2021/12/24 03:37:04;;;;;;;57.15;19.30;;;;;;;;;;5011561;28;20486;-85
2021/12/24 03:39:30;;;;;;;64.55;19.15;;;;;;;;;;5015380;28;20037;-83
2021/12/24 03:41:57;;;;;;;56.38;18.52;;;;;;;;;;5024801;28;20186;-84
2021/12/24 03:44:32;;;;;;;46.65;17.70;;;;;;;;;;4997095;28;20049;-89
2021/12/24 03:47:06;;;;;;;50.47;16.35;;;;;;;;;;5008469;28;20050;-86
2021/12/24 03:49:50;;;;;;;62.85;19.38;;;;;;;;;;5011194;28;20045;-86
2021/12/24 03:52:49;;;;;;;;;;;;;;;;;;5009814;28;20054;-86
2021/12/24 03:55:15;;;;;;;62.72;18.92;;;;;;;;;;5013947;28;20711;-84
2021/12/24 03:57:42;;;;;;;64.80;19.55;;;;;;;;;;5008751;28;20140;-86
2021/12/24 04:00:28;;;;;;;80.15;21.48;;;;;;;;;;5017630;28;20405;-86
2021/12/24 04:02:55;;;;;;;76.63;22.00;;;;;;;;;;5009396;28;20418;-86
2021/12/24 04:05:21;;;;;;;84.55;22.88;;;;;;;;;;4997991;28;20072;-84
2021/12/24 04:07:47;;;;;;;81.32;22.58;;;;;;;;;;5006871;28;20049;-85
2021/12/24 04:12:46;;;;;;;93.88;23.48;;;;;;;;;;5018028;28;20136;-85
2021/12/24 04:15:12;;;;;;;102.47;25.65;;;;;;;;;;5016027;28;20045;-85
2021/12/24 04:17:40;;;;;;;83.43;23.40;;;;;;;;;;5006209;28;20556;-85
2021/12/24 04:25:26;;;;;;;94.30;24.67;;;;;;;;;;5011701;28;20161;-85
2021/12/24 04:27:54;;;;;;;94.25;24.88;;;;;;;;;;5000300;28;20049;-86
2021/12/24 04:30:26;;;;;;;107.53;26.02;;;;;;;;;;5015708;28;20046;-86
2021/12/24 04:35:33;;;;;;;98.68;23.88;;;;;;;;;;5010437;28;20137;-87
2021/12/24 04:51:34;;;;;;;86.47;21.90;;;;;;;;;;4990762;28;20138;-87
2021/12/24 05:02:27;;;;;;;82.93;22.42;;;;;;;;;;5008939;28;20050;-85
2021/12/24 05:05:08;;;;;;;83.93;23.30;;;;;;;;;;5002459;28;20100;-84
2021/12/24 05:10:13;;;;;;;76.80;22.20;;;;;;;;;;5009053;28;20827;-86
2021/12/24 05:12:39;;;;;;;84.00;23.95;;;;;;;;;;4991982;28;20137;-86
2021/12/24 05:15:10;;;;;;;87.05;23.65;;;;;;;;;;4989275;28;20665;-85
2021/12/24 05:18:03;;;;;;;91.70;23.77;;;;;;;;;;5012261;28;20077;-86
2021/12/24 05:23:17;;;;;;;96.22;24.95;;;;;;;;;;5021768;28;20138;-86
2021/12/24 05:25:44;;;;;;;87.05;23.60;;;;;;;;;;5001456;28;20092;-86
2021/12/24 05:28:10;;;;;;;82.60;24.55;;;;;;;;;;5013160;28;20675;-87
2021/12/24 05:30:36;;;;;;;97.35;27.48;;;;;;;;;;5023465;28;20045;-86
2021/12/24 05:33:02;;;;;;;103.75;27.77;;;;;;;;;;5020002;28;20151;-85
2021/12/24 05:35:28;;;;;;;122.97;31.65;;;;;;;;;;5006854;28;20056;-85
2021/12/24 05:37:54;;;;;;;106.57;30.77;;;;;;;;;;5016123;28;20576;-86
2021/12/24 05:40:20;;;;;;;130.95;34.00;;;;;;;;;;5020625;28;20719;-85
2021/12/24 05:42:55;;;;;;;128.73;35.03;;;;;;;;;;5022171;28;20049;-86
2021/12/24 05:45:24;;;;;;;139.55;36.75;;;;;;;;;;5020032;28;20382;-86
2021/12/24 05:47:50;;;;;;;149.55;38.75;;;;;;;;;;5014264;28;20424;-85
2021/12/24 05:50:16;;;;;;;182.30;38.83;;;;;;;;;;5022096;28;20056;-85
2021/12/24 05:52:42;;;;;;;167.40;39.53;;;;;;;;;;5018069;28;20046;-86
2021/12/24 05:55:08;;;;;;;160.85;36.60;;;;;;;;;;5011673;28;20048;-85
2021/12/24 05:57:35;;;;;;;146.95;36.15;;;;;;;;;;5017367;28;22143;-85
2021/12/24 06:00:05;;;;;;;123.82;30.83;;;;;;;;;;5009937;28;20029;-85
2021/12/24 06:02:31;;;;;;;94.70;23.73;;;;;;;;;;4995593;28;20120;-85
2021/12/24 06:04:57;;;;;;;62.08;19.63;;;;;;;;;;4999362;28;20139;-90
2021/12/24 06:07:23;;;;;;;73.32;18.35;;;;;;;;;;5018380;28;20052;-86
2021/12/24 06:09:50;;;;;;;58.63;19.30;;;;;;;;;;5009485;28;20497;-86
2021/12/24 06:12:16;;;;;;;67.32;21.67;;;;;;;;;;5006333;28;20132;-86
2021/12/24 06:14:45;;;;;;;76.90;21.98;;;;;;;;;;5009133;28;20128;-86
2021/12/24 06:17:15;;;;;;;73.72;20.10;;;;;;;;;;5009096;28;20816;-86
2021/12/24 06:19:42;;;;;;;67.78;18.15;;;;;;;;;;5004996;28;20132;-86
2021/12/24 06:22:08;;;;;;;60.13;16.88;;;;;;;;;;5017504;28;20287;-85
2021/12/24 06:24:34;;;;;;;61.15;17.88;;;;;;;;;;5005055;28;20858;-87
2021/12/24 06:27:00;;;;;;;68.38;17.30;;;;;;;;;;5000910;28;20161;-87
2021/12/24 06:29:26;;;;;;;84.78;18.08;;;;;;;;;;4999702;28;20490;-87
2021/12/24 06:31:52;;;;;;;94.18;20.42;;;;;;;;;;4994561;28;20100;-86
2021/12/24 06:34:19;;;;;;;60.42;15.65;;;;;;;;;;5011049;28;20041;-87
2021/12/24 06:36:48;;;;;;;74.85;17.98;;;;;;;;;;4990466;28;20066;-86
2021/12/24 06:39:14;;;;;;;56.80;16.30;;;;;;;;;;5019824;28;20057;-86
2021/12/24 06:41:40;;;;;;;78.25;16.58;;;;;;;;;;5031236;28;20092;-86
2021/12/24 06:44:10;;;;;;;78.22;17.73;;;;;;;;;;5033334;28;20416;-86
2021/12/24 06:46:43;;;;;;;65.70;16.48;;;;;;;;;;5020842;28;20042;-85
2021/12/24 06:49:10;;;;;;;70.75;16.10;;;;;;;;;;5013408;28;20037;-86
2021/12/24 06:51:36;;;;;;;97.78;18.20;;;;;;;;;;5009597;28;20034;-85
2021/12/24 06:54:03;;;;;;;123.45;19.77;;;;;;;;;;5011078;28;20053;-90
2021/12/24 06:56:29;;;;;;;120.05;20.65;;;;;;;;;;4991276;28;20136;-86
2021/12/24 06:58:55;;;;;;;79.10;16.80;;;;;;;;;;5004787;28;20034;-85
2021/12/24 07:01:21;;;;;;;96.90;18.63;;;;;;;;;;4990662;28;20038;-88
2021/12/24 07:03:47;;;;;;;45.83;13.35;;;;;;;;;;4995475;28;20040;-84
2021/12/24 07:06:17;;;;;;;62.45;15.35;;;;;;;;;;5010076;28;20046;-91
2021/12/24 07:08:43;;;;;;;41.60;12.45;;;;;;;;;;5007639;28;20045;-91
2021/12/24 07:11:09;;;;;;;45.97;13.40;;;;;;;;;;5009905;28;20049;-86
2021/12/24 07:13:38;;;;;;;35.58;10.50;;;;;;;;;;4992357;28;20041;-85
2021/12/24 07:16:04;;;;;;;30.85;10.65;;;;;;;;;;5007513;28;20072;-86
2021/12/24 07:18:31;;;;;;;53.70;13.48;;;;;;;;;;5007663;28;20070;-90
2021/12/24 07:20:57;;;;;;;37.83;12.32;;;;;;;;;;5015648;28;20115;-86
2021/12/24 07:23:23;;;;;;;32.10;11.27;;;;;;;;;;5007404;28;20042;-85
2021/12/24 07:25:49;;;;;;;30.08;10.60;;;;;;;;;;4973056;28;20049;-85
2021/12/24 07:28:15;;;;;;;45.05;13.13;;;;;;;;;;5004164;28;20097;-88
2021/12/24 07:30:45;;;;;;;54.42;14.10;;;;;;;;;;5005583;28;20056;-86
2021/12/24 07:33:14;;;;;;;79.45;14.80;;;;;;;;;;4989103;28;20104;-85
2021/12/24 07:35:42;;;;;;;43.28;12.50;;;;;;;;;;4994672;28;20046;-85
2021/12/24 07:38:09;;;;;;;57.08;14.23;;;;;;;;;;5020647;28;20037;-86
2021/12/24 07:40:35;;;;;;;51.22;13.85;;;;;;;;;;5014149;28;20052;-86
2021/12/24 07:43:01;;;;;;;63.50;13.27;;;;;;;;;;5016765;28;20103;-90
2021/12/24 07:45:28;;;;;;;66.38;14.25;;;;;;;;;;5009883;28;20535;-86
2021/12/24 07:53:22;;;;;;;83.47;15.88;;;;;;;;;;5006987;28;20103;-83
2021/12/24 07:55:48;;;;;;;46.97;13.15;;;;;;;;;;5006459;28;20046;-85
2021/12/24 07:58:16;;;;;;;64.65;14.73;;;;;;;;;;5004780;28;20044;-83
2021/12/24 08:00:42;;;;;;;65.07;15.13;;;;;;;;;;5005880;28;20052;-85
2021/12/24 08:03:08;;;;;;;46.33;14.00;;;;;;;;;;5001116;28;20041;-84
2021/12/24 08:05:38;;;;;;;84.15;15.80;;;;;;;;;;4992383;28;20120;-85
2021/12/24 08:08:04;;;;;;;54.03;14.70;;;;;;;;;;4997832;28;20073;-87
2021/12/24 08:10:31;;;;;;;62.45;14.35;;;;;;;;;;4996072;28;20038;-86
2021/12/24 08:12:57;;;;;;;49.88;13.77;;;;;;;;;;5013497;28;20097;-87
2021/12/24 08:15:28;;;;;;;53.78;15.43;;;;;;;;;;5009737;28;20033;-86
2021/12/24 08:17:57;;;;;;;65.15;15.70;;;;;;;;;;4977912;28;20049;-86
2021/12/24 08:20:25;;;;;;;69.65;16.45;;;;;;;;;;5010536;28;20400;-87
2021/12/24 08:22:53;;;;;;;52.70;14.90;;;;;;;;;;5006986;28;20065;-87
2021/12/24 08:25:19;;;;;;;61.42;15.68;;;;;;;;;;5009713;28;20045;-87
2021/12/24 08:27:45;;;;;;;55.67;14.82;;;;;;;;;;5009075;28;20064;-86
2021/12/24 08:30:12;;;;;;;44.53;14.35;;;;;;;;;;5013028;28;20040;-86
2021/12/24 08:32:40;;;;;;;65.60;15.40;;;;;;;;;;4997418;28;20513;-86
2021/12/24 08:35:08;;;;;;;73.20;16.83;;;;;;;;;;5006393;28;20060;-86
2021/12/24 08:37:34;;;;;;;43.50;14.80;;;;;;;;;;5005343;28;20085;-87
2021/12/24 08:40:00;;;;;;;56.28;16.67;;;;;;;;;;4995367;28;20030;-87
2021/12/24 08:42:26;;;;;;;62.08;16.00;;;;;;;;;;5019364;28;20049;-85
2021/12/24 08:44:52;;;;;;;70.28;18.35;;;;;;;;;;5009368;28;20068;-87
2021/12/24 08:47:18;;;;;;;50.60;16.05;;;;;;;;;;5017949;28;20034;-86
2021/12/24 08:49:45;;;;;;;55.75;16.70;;;;;;;;;;5015736;28;20050;-85
2021/12/24 08:52:11;;;;;;;63.58;17.92;;;;;;;;;;4987229;28;20053;-86
2021/12/24 08:54:37;;;;;;;75.13;18.08;;;;;;;;;;5007563;28;20045;-86
2021/12/24 08:57:04;;;;;;;65.38;17.60;;;;;;;;;;5001907;28;20051;-88
2021/12/24 08:59:30;;;;;;;60.63;17.13;;;;;;;;;;5002893;28;20034;-85
2021/12/24 09:01:58;;;;;;;49.95;15.43;;;;;;;;;;5014362;28;20049;-85
2021/12/24 09:04:25;;;;;;;57.10;16.80;;;;;;;;;;4997351;28;20053;-85
2021/12/24 09:06:51;;;;;;;57.25;17.35;;;;;;;;;;4993023;28;20486;-86
2021/12/24 09:09:17;;;;;;;47.63;15.55;;;;;;;;;;5011834;28;20056;-85
2021/12/24 09:11:46;;;;;;;47.78;15.27;;;;;;;;;;4994003;28;20038;-87
2021/12/24 09:14:17;;;;;;;47.90;14.00;;;;;;;;;;5006408;28;20038;-86
2021/12/24 09:16:44;;;;;;;49.90;13.13;;;;;;;;;;4994858;28;20046;-86
2021/12/24 09:19:14;;;;;;;38.75;11.65;;;;;;;;;;5011625;28;20042;-88
2021/12/24 09:21:40;;;;;;;48.78;14.63;;;;;;;;;;5007936;28;20058;-89
2021/12/24 09:24:08;;;;;;;48.28;14.75;;;;;;;;;;4986412;28;22043;-88
2021/12/24 09:26:35;;;;;;;69.57;16.42;;;;;;;;;;4972943;28;20050;-88
2021/12/24 09:29:02;;;;;;;49.78;14.43;;;;;;;;;;4996215;28;20038;-90
2021/12/24 09:31:28;;;;;;;42.72;14.07;;;;;;;;;;4972351;28;20038;-87
2021/12/24 09:33:55;;;;;;;38.28;14.57;;;;;;;;;;4989274;28;20435;-84
2021/12/24 09:36:25;;;;;;;43.38;14.98;;;;;;;;;;4957859;28;20050;-86
2021/12/24 09:38:56;;;;;;;49.92;15.40;;;;;;;;;;4994387;28;20398;-84
2021/12/24 09:41:23;;;;;;;48.70;16.85;;;;;;;;;;4992601;28;20049;-86
2021/12/24 09:43:49;;;;;;;44.70;16.98;;;;;;;;;;4989502;28;20054;-85
2021/12/24 09:46:16;;;;;;;37.70;14.98;;;;;;;;;;4990054;28;20528;-86
2021/12/24 09:48:42;;;;;;;48.90;16.45;;;;;;;;;;4987280;28;20893;-83
2021/12/24 09:51:09;;;;;;;42.65;15.68;;;;;;;;;;4970967;28;20533;-85
2021/12/24 09:53:39;;;;;;;29.77;12.85;;;;;;;;;;4987085;28;20106;-84
2021/12/24 09:56:06;;;;;;;36.58;13.50;;;;;;;;;;4987909;28;20042;-86
2021/12/24 09:58:32;;;;;;;27.55;11.40;;;;;;;;;;4988069;28;20050;-84
2021/12/24 10:00:58;;;;;;;32.95;11.60;;;;;;;;;;4991180;28;20149;-85
2021/12/24 10:03:31;;;;;;;35.35;12.88;;;;;;;;;;4994574;28;20045;-82
2021/12/24 10:05:58;;;;;;;26.83;12.67;;;;;;;;;;4980204;28;20532;-83
2021/12/24 10:08:25;;;;;;;25.52;11.95;;;;;;;;;;4950935;28;20416;-82
2021/12/24 10:10:54;;;;;;;24.23;12.52;;;;;;;;;;4972459;28;20057;-85
2021/12/24 10:13:24;;;;;;;24.40;11.70;;;;;;;;;;5000887;28;20052;-85
2021/12/24 10:15:58;;;;;;;18.88;9.77;;;;;;;;;;4990943;28;20069;-86
2021/12/24 10:18:24;;;;;;;;;;;;;;;;;;4987830;28;20133;-88
2021/12/24 10:21:08;;;;;;;22.13;10.82;;;;;;;;;;4971944;28;19929;-84
2021/12/24 10:23:37;;;;;;;22.48;10.68;;;;;;;;;;4997218;28;20049;-84
2021/12/24 10:26:14;;;;;;;26.08;11.52;;;;;;;;;;5016207;28;20866;-85
2021/12/24 10:28:48;;;;;;;23.85;11.25;;;;;;;;;;5014313;28;20049;-84
2021/12/24 10:31:14;;;;;;;;;;;;;;;;;;5008211;28;20096;-85
2021/12/24 10:33:40;;;;;;;20.75;10.55;;;;;;;;;;5007946;28;19925;-84
2021/12/24 10:36:07;;;;;;;22.10;10.73;;;;;;;;;;5015050;28;20048;-86
2021/12/24 10:38:33;;;;;;;19.58;9.90;;;;;;;;;;5008764;28;20546;-84
2021/12/24 10:41:06;;;;;;;23.70;11.55;;;;;;;;;;5004472;28;20881;-84
2021/12/24 10:43:36;;;;;;;22.27;11.38;;;;;;;;;;4989558;28;20103;-85
2021/12/24 10:46:28;;;;;;;21.50;10.77;;;;;;;;;;4978380;28;20084;-85
2021/12/24 10:49:04;;;;;;;19.90;10.95;;;;;;;;;;5009740;28;20125;-85
2021/12/24 10:54:15;;;;;;;19.67;10.27;;;;;;;;;;5003916;28;20042;-83
2021/12/24 10:56:41;;;;;;;19.52;10.60;;;;;;;;;;5010602;28;20065;-86
2021/12/24 10:59:07;;;;;;;18.92;10.38;;;;;;;;;;4993951;28;20058;-85
2021/12/24 11:01:33;;;;;;;20.17;10.98;;;;;;;;;;4968193;28;20045;-85
2021/12/24 11:03:59;;;;;;;23.85;10.40;;;;;;;;;;5004351;28;20600;-89
2021/12/24 11:06:33;;;;;;;21.58;10.85;;;;;;;;;;4993690;28;20050;-85
2021/12/24 11:09:00;;;;;;;24.45;10.70;;;;;;;;;;5011404;28;20046;-86
2021/12/24 11:11:35;;;;;;;19.60;9.65;;;;;;;;;;5010602;28;20042;-84
2021/12/24 11:14:01;;;;;;;20.20;10.32;;;;;;;;;;4992265;28;20051;-85
2021/12/24 11:16:28;;;;;;;22.67;10.77;;;;;;;;;;4991784;28;20045;-85
2021/12/24 11:18:58;;;;;;;19.17;9.65;;;;;;;;;;4978044;28;20090;-86
2021/12/24 11:21:26;;;;;;;19.88;10.07;;;;;;;;;;5010656;28;20057;-87
2021/12/24 11:23:52;;;;;;;21.10;10.38;;;;;;;;;;4993781;28;20139;-84
2021/12/24 11:26:20;;;;;;;19.33;9.38;;;;;;;;;;5004109;28;20049;-84
2021/12/24 11:28:47;;;;;;;18.90;9.82;;;;;;;;;;4997722;28;20540;-88
2021/12/24 11:31:18;;;;;;;16.85;10.05;;;;;;;;;;4989634;28;20172;-85
2021/12/24 11:33:45;;;;;;;17.80;9.65;;;;;;;;;;5008999;28;20060;-84
2021/12/24 11:36:14;;;;;;;18.27;9.63;;;;;;;;;;5010856;28;20125;-83
2021/12/24 11:38:42;;;;;;;19.23;9.93;;;;;;;;;;5008671;28;20037;-82
2021/12/24 11:41:13;;;;;;;17.55;9.38;;;;;;;;;;5015528;28;20405;-84
2021/12/24 11:43:40;;;;;;;18.42;9.40;;;;;;;;;;4989503;28;20460;-83
2021/12/24 11:46:07;;;;;;;16.77;9.85;;;;;;;;;;5013655;28;20029;-83
2021/12/24 11:48:37;;;;;;;17.48;9.13;;;;;;;;;;5013763;28;20563;-87
2021/12/24 11:51:23;;;;;;;17.52;9.48;;;;;;;;;;5000195;28;20061;-84
2021/12/24 11:53:51;;;;;;;16.08;8.25;;;;;;;;;;4991077;28;20442;-84
2021/12/24 11:56:19;;;;;;;15.40;8.90;;;;;;;;;;5006822;28;20915;-84
2021/12/24 11:58:50;;;;;;;16.27;9.90;;;;;;;;;;4983514;28;20522;-82
2021/12/24 12:01:17;;;;;;;21.05;10.27;;;;;;;;;;5000898;28;20573;-83
2021/12/24 12:03:49;;;;;;;15.38;9.60;;;;;;;;;;4986012;28;20065;-82
2021/12/24 12:06:18;;;;;;;13.85;9.10;;;;;;;;;;5003988;28;20046;-81
2021/12/24 12:08:45;;;;;;;17.88;9.23;;;;;;;;;;5002634;28;20113;-83
2021/12/24 12:11:14;;;;;;;13.13;7.50;;;;;;;;;;5011419;28;20762;-84
2021/12/24 12:13:42;;;;;;;15.13;8.40;;;;;;;;;;5007166;28;20037;-85
2021/12/24 12:16:28;;;;;;;15.48;9.23;;;;;;;;;;4971552;28;20573;-85
2021/12/24 12:19:12;;;;;;;14.32;8.90;;;;;;;;;;5003826;28;20501;-81
2021/12/24 12:21:42;;;;;;;16.20;10.05;;;;;;;;;;4998420;28;20061;-83
2021/12/24 12:26:46;;;;;;;15.88;8.77;;;;;;;;;;5010169;28;20719;-82
2021/12/24 12:29:38;;;;;;;18.80;9.10;;;;;;;;;;5020987;28;20055;-83
2021/12/24 12:32:26;;;;;;;11.75;7.95;;;;;;;;;;5022334;28;20087;-82
2021/12/24 12:34:59;;;;;;;12.40;8.30;;;;;;;;;;5022732;28;20207;-84
2021/12/24 12:37:27;;;;;;;13.13;8.60;;;;;;;;;;5006193;28;20050;-85
2021/12/24 12:39:59;;;;;;;21.92;12.63;;;;;;;;;;5003411;28;20042;-84
2021/12/24 12:42:45;;;;;;;15.25;9.20;;;;;;;;;;5014621;28;20176;-86
2021/12/24 12:45:11;;;;;;;20.25;12.07;;;;;;;;;;5008536;28;20042;-84
2021/12/24 12:47:51;;;;;;;14.15;9.95;;;;;;;;;;5006057;28;20037;-84
2021/12/24 12:50:18;;;;;;;14.27;8.95;;;;;;;;;;5020938;28;20100;-84
2021/12/24 12:52:51;;;;;;;15.48;10.07;;;;;;;;;;5005172;28;20049;-85
2021/12/24 12:55:31;;;;;;;15.02;9.30;;;;;;;;;;5002602;28;20560;-85
2021/12/24 12:58:18;;;;;;;13.75;9.35;;;;;;;;;;5004396;28;20054;-85
2021/12/24 13:01:04;;;;;;;13.88;9.02;;;;;;;;;;5013376;28;20555;-85
2021/12/24 13:03:31;;;;;;;13.85;9.75;;;;;;;;;;5012838;28;20049;-86
2021/12/24 13:05:59;;;;;;;16.10;11.13;;;;;;;;;;4999763;28;20053;-85
2021/12/24 13:08:28;;;;;;;14.70;10.77;;;;;;;;;;4992493;28;20145;-85
2021/12/24 13:10:59;;;;;;;15.18;10.43;;;;;;;;;;5011400;28;20048;-85
2021/12/24 13:13:26;;;;;;;10.27;7.63;;;;;;;;;;5022529;28;20038;-86
2021/12/24 13:15:53;;;;;;;9.15;7.50;;;;;;;;;;5019239;28;20096;-85
2021/12/24 13:18:29;;;;;;;15.35;8.07;;;;;;;;;;5011843;28;20139;-86
2021/12/24 13:23:30;;;;;;;8.55;7.00;;;;;;;;;;5009603;28;20042;-85
2021/12/24 13:25:56;;;;;;;12.38;7.88;;;;;;;;;;5024029;28;20041;-86
2021/12/24 13:28:22;;;;;;;11.40;8.68;;;;;;;;;;5011633;28;20034;-85
2021/12/24 13:30:48;;;;;;;13.43;10.25;;;;;;;;;;5010782;28;20096;-85
2021/12/24 13:33:15;;;;;;;16.17;12.32;;;;;;;;;;4990578;28;20031;-88
2021/12/24 13:35:43;;;;;;;13.18;8.40;;;;;;;;;;4996660;28;20386;-87
2021/12/24 13:38:24;;;;;;;12.63;8.50;;;;;;;;;;4994971;28;20084;-87
2021/12/24 13:40:50;;;;;;;14.30;9.27;;;;;;;;;;5009193;28;20042;-87
2021/12/24 13:43:18;;;;;;;18.33;11.95;;;;;;;;;;5007523;28;20050;-88
2021/12/24 13:45:48;;;;;;;17.27;11.48;;;;;;;;;;5004880;28;20038;-87
2021/12/24 13:48:17;;;;;;;13.80;9.30;;;;;;;;;;5006841;28;20406;-87
2021/12/24 13:56:39;;;;;;;15.68;10.35;;;;;;;;;;5007718;28;20057;-88
2021/12/24 13:59:05;;;;;;;16.27;9.57;;;;;;;;;;5004718;28;20052;-87
2021/12/24 14:01:32;;;;;;;14.70;11.00;;;;;;;;;;4990647;28;20053;-87
2021/12/24 14:04:08;;;;;;;25.08;9.98;;;;;;;;;;5004850;28;20141;-88
2021/12/24 14:06:37;;;;;;;20.42;8.52;;;;;;;;;;4986496;28;20472;-87
2021/12/24 14:09:10;;;;;;;13.02;8.18;;;;;;;;;;4987007;28;20411;-87
2021/12/24 14:11:37;;;;;;;12.25;8.82;;;;;;;;;;4996080;28;20519;-84
2021/12/24 14:14:09;;;;;;;11.27;8.40;;;;;;;;;;4993327;28;20089;-86
2021/12/24 14:19:33;;;;;;;13.90;5.55;;;;;;;;;;5014469;28;20475;-88
2021/12/24 14:22:06;;;;;;;5.40;3.72;;;;;;;;;;4989628;28;20054;-85
2021/12/24 14:24:36;;;;;;;8.27;3.92;;;;;;;;;;5006383;28;20096;-88
2021/12/24 14:27:02;;;;;;;8.32;3.20;;;;;;;;;;4996849;28;20046;-88
2021/12/24 14:29:33;;;;;;;7.82;3.05;;;;;;;;;;5004449;28;20045;-87
2021/12/24 14:32:10;;;;;;;7.07;3.20;;;;;;;;;;5001645;28;20168;-87
2021/12/24 14:34:38;;;;;;;3.10;2.50;;;;;;;;;;4991243;28;20073;-86
2021/12/24 14:40:15;;;;;;;6.38;3.03;;;;;;;;;;5006376;28;20058;-86
2021/12/24 14:42:47;;;;;;;6.18;3.53;;;;;;;;;;4996379;28;20072;-87
2021/12/24 14:45:13;;;;;;;4.25;3.15;;;;;;;;;;5004807;28;20056;-86
2021/12/24 14:47:40;;;;;;;2.80;2.13;;;;;;;;;;4988309;28;20798;-86
2021/12/24 14:50:07;;;;;;;7.68;1.25;;;;;;;;;;5006066;28;20050;-85
2021/12/24 14:52:37;;;;;;;6.80;1.08;;;;;;;;;;4987438;28;20172;-88
2021/12/24 14:55:10;;;;;;;10.20;1.48;;;;;;;;;;5007238;28;20058;-90
2021/12/24 14:57:44;;;;;;;9.27;1.83;;;;;;;;;;5003949;28;20109;-86
2021/12/24 15:00:12;;;;;;;12.50;1.80;;;;;;;;;;4989560;28;20076;-87
2021/12/24 15:02:46;;;;;;;8.10;2.50;;;;;;;;;;5006655;28;20041;-88
2021/12/24 15:05:22;;;;;;;9.63;2.90;;;;;;;;;;5009056;28;20124;-88
2021/12/24 15:07:49;;;;;;;11.45;3.50;;;;;;;;;;5009132;28;20041;-88
2021/12/24 15:10:17;;;;;;;23.90;5.57;;;;;;;;;;4972586;28;20042;-89
2021/12/24 15:12:49;;;;;;;20.45;5.53;;;;;;;;;;4988586;28;20141;-88
2021/12/24 15:15:19;;;;;;;22.70;6.82;;;;;;;;;;5012708;28;21048;-89
2021/12/24 15:17:46;;;;;;;18.75;5.97;;;;;;;;;;5000263;28;20049;-89
2021/12/24 15:20:15;;;;;;;18.13;6.68;;;;;;;;;;4984669;28;20574;-85
2021/12/24 15:22:41;;;;;;;20.65;7.47;;;;;;;;;;4993650;28;20085;-87
2021/12/24 15:25:08;;;;;;;24.30;7.68;;;;;;;;;;4992831;28;20144;-86
2021/12/24 15:27:36;;;;;;;26.73;9.48;;;;;;;;;;4991319;28;20053;-85
2021/12/24 15:30:06;;;;;;;21.10;8.90;;;;;;;;;;5004395;28;20045;-83
2021/12/24 15:32:32;;;;;;;24.92;11.45;;;;;;;;;;5005949;28;20049;-84
2021/12/24 15:34:58;;;;;;;25.13;8.90;;;;;;;;;;5013939;28;20064;-87
2021/12/24 15:37:25;;;;;;;20.50;8.95;;;;;;;;;;5002727;28;21620;-82
2021/12/24 15:39:57;;;;;;;19.42;8.48;;;;;;;;;;5006297;28;20034;-85
2021/12/24 15:42:27;;;;;;;24.20;8.25;;;;;;;;;;4999530;28;20740;-85
2021/12/24 15:44:53;;;;;;;19.75;9.45;;;;;;;;;;4991701;28;20437;-85
2021/12/24 15:47:19;;;;;;;20.55;10.27;;;;;;;;;;5008497;28;20600;-83
2021/12/24 15:49:45;;;;;;;29.00;10.57;;;;;;;;;;5012115;28;20482;-85
2021/12/24 15:52:12;;;;;;;23.00;9.50;;;;;;;;;;5014460;28;20129;-85
2021/12/24 15:54:38;;;;;;;24.38;11.23;;;;;;;;;;5003303;28;20050;-85
2021/12/24 15:57:04;;;;;;;29.50;11.25;;;;;;;;;;5001848;28;20046;-85
2021/12/24 15:59:33;;;;;;;22.00;9.40;;;;;;;;;;5003355;28;20045;-86
2021/12/24 16:01:59;;;;;;;22.45;9.18;;;;;;;;;;5004238;28;20045;-85
2021/12/24 16:04:25;;;;;;;21.33;10.07;;;;;;;;;;4985560;28;20103;-85
2021/12/24 16:06:52;;;;;;;20.98;9.88;;;;;;;;;;5003833;28;20514;-85
2021/12/24 16:09:20;;;;;;;25.90;10.48;;;;;;;;;;5004828;28;20038;-85
2021/12/24 16:11:49;;;;;;;26.50;10.70;;;;;;;;;;5005367;28;20113;-86
2021/12/24 16:14:16;;;;;;;27.52;10.35;;;;;;;;;;5006564;28;20054;-85
2021/12/24 16:16:44;;;;;;;28.70;11.55;;;;;;;;;;5004780;28;20046;-85
2021/12/24 16:19:11;;;;;;;24.30;11.57;;;;;;;;;;5008227;28;20159;-85
2021/12/24 16:21:39;;;;;;;29.05;11.93;;;;;;;;;;5006523;28;20046;-85
2021/12/24 16:24:13;;;;;;;31.83;11.82;;;;;;;;;;5006473;28;20068;-85
2021/12/24 16:26:39;;;;;;;22.25;11.18;;;;;;;;;;5004243;28;20140;-85
2021/12/24 16:29:08;;;;;;;18.15;8.18;;;;;;;;;;5011580;28;20130;-85
2021/12/24 16:31:34;;;;;;;13.30;7.85;;;;;;;;;;5016872;28;20121;-85
2021/12/24 16:34:01;;;;;;;17.95;8.10;;;;;;;;;;5024138;28;20053;-84
2021/12/24 16:36:27;;;;;;;20.60;8.40;;;;;;;;;;5022653;28;20091;-84
2021/12/24 16:38:53;;;;;;;15.52;7.93;;;;;;;;;;5011951;28;20030;-85